createdAt,value
2023-03-29T00:00:29.207Z,78.24
2023-03-29T00:02:56.550Z,78.32
2023-03-29T00:05:25.328Z,78.19
2023-03-29T00:07:54.355Z,78.47
2023-03-29T00:10:24.139Z,78.29
2023-03-29T00:12:52.534Z,77.95
2023-03-29T00:15:20.152Z,78.56
2023-03-29T00:17:46.773Z,78.70
2023-03-29T00:20:13.816Z,78.54
2023-03-29T00:22:42.303Z,78.39
2023-03-29T00:25:10.907Z,78.75
2023-03-29T00:27:38.128Z,78.55
2023-03-29T00:30:07.922Z,78.52
2023-03-29T00:32:34.587Z,79.23
2023-03-29T00:35:01.352Z,79.35
2023-03-29T00:37:30.031Z,78.60
2023-03-29T00:39:57.860Z,78.40
2023-03-29T00:42:26.124Z,78.74
2023-03-29T00:50:29.830Z,79.15
2023-03-29T00:55:39.502Z,78.54
2023-03-29T00:58:09.963Z,78.54
2023-03-29T01:00:44.649Z,78.51
2023-03-29T01:03:14.513Z,78.97
2023-03-29T01:05:45.965Z,78.52
2023-03-29T01:08:18.351Z,78.78
2023-03-29T01:10:53.504Z,78.55
2023-03-29T01:13:31.753Z,78.64
2023-03-29T01:15:59.330Z,78.69
2023-03-29T01:18:26.023Z,78.20
2023-03-29T01:21:10.135Z,78.72
2023-03-29T01:27:00.643Z,78.30
2023-03-29T01:29:34.202Z,78.42
2023-03-29T01:32:09.035Z,78.31
2023-03-29T01:34:44.710Z,78.44
2023-03-29T01:37:25.010Z,78.07
2023-03-29T01:39:52.813Z,78.80
2023-03-29T01:48:14.916Z,78.15
2023-03-29T01:50:48.392Z,78.63
2023-03-29T01:53:27.178Z,78.66
2023-03-29T01:55:57.231Z,78.79
2023-03-29T01:58:28.837Z,78.68
2023-03-29T02:00:57.839Z,78.09
2023-03-29T02:03:28.134Z,78.30
2023-03-29T02:05:57.025Z,78.17
2023-03-29T02:08:24.915Z,78.04
2023-03-29T02:10:52.528Z,78.62
2023-03-29T02:13:20.172Z,78.16
2023-03-29T02:15:47.674Z,78.27
2023-03-29T02:18:17.925Z,78.09
2023-03-29T02:20:48.544Z,78.10
2023-03-29T02:25:56.985Z,77.95
2023-03-29T02:28:25.130Z,78.47
2023-03-29T02:36:18.226Z,78.08
2023-03-29T02:38:45.077Z,78.16
2023-03-29T02:41:13.096Z,78.76
2023-03-29T02:43:41.785Z,79.06
2023-03-29T02:46:08.693Z,78.62
2023-03-29T02:48:37.801Z,79.06
2023-03-29T02:51:14.114Z,79.13
2023-03-29T02:53:46.022Z,79.21
2023-03-29T02:56:13.670Z,79.72
2023-03-29T02:58:41.037Z,79.53
2023-03-29T03:01:09.692Z,79.83
2023-03-29T03:03:36.653Z,79.71
2023-03-29T03:06:03.489Z,79.30
2023-03-29T03:08:30.036Z,79.44
2023-03-29T03:10:56.675Z,80.53
2023-03-29T03:13:23.198Z,79.68
2023-03-29T03:15:50.386Z,79.59
2023-03-29T03:18:17.571Z,79.79
2023-03-29T03:20:47.614Z,79.75
2023-03-29T03:23:14.214Z,80.20
2023-03-29T03:25:40.719Z,79.69
2023-03-29T03:28:07.659Z,79.67
2023-03-29T03:30:34.805Z,79.51
2023-03-29T03:33:01.491Z,80.45
2023-03-29T03:35:28.091Z,80.00
2023-03-29T03:37:54.696Z,80.21
2023-03-29T03:40:22.101Z,80.07
2023-03-29T03:42:48.705Z,79.75
2023-03-29T03:45:15.489Z,79.45
2023-03-29T03:47:42.382Z,79.25
2023-03-29T03:50:09.394Z,79.59
2023-03-29T03:52:36.331Z,79.66
2023-03-29T03:55:03.026Z,79.59
2023-03-29T03:57:29.858Z,79.63
2023-03-29T03:59:56.436Z,79.75
2023-03-29T04:02:23.466Z,79.43
2023-03-29T04:04:50.184Z,80.52
2023-03-29T04:07:17.888Z,79.29
2023-03-29T04:09:45.187Z,79.24
2023-03-29T04:12:12.159Z,79.37
2023-03-29T04:14:38.767Z,79.76
2023-03-29T04:17:05.759Z,80.12
2023-03-29T04:19:32.594Z,80.39
2023-03-29T04:21:59.176Z,79.26
2023-03-29T04:24:25.851Z,79.59
2023-03-29T04:26:52.392Z,79.36
2023-03-29T04:29:18.960Z,79.87
2023-03-29T04:31:45.676Z,79.72
2023-03-29T04:34:12.369Z,79.79
2023-03-29T04:36:39.005Z,79.42
2023-03-29T04:39:07.931Z,79.62
2023-03-29T04:41:34.875Z,79.09
2023-03-29T04:44:03.523Z,79.79
2023-03-29T04:46:30.483Z,79.34
2023-03-29T04:48:57.442Z,79.84
2023-03-29T04:51:24.498Z,79.72
2023-03-29T04:53:51.376Z,78.87
2023-03-29T04:56:18.046Z,80.18
2023-03-29T04:58:44.728Z,79.71
2023-03-29T05:01:11.462Z,79.76
2023-03-29T05:03:38.229Z,80.75
2023-03-29T05:06:07.314Z,80.31
2023-03-29T05:08:38.436Z,80.52
2023-03-29T05:11:10.436Z,80.03
2023-03-29T05:13:37.795Z,80.04
2023-03-29T05:16:05.206Z,80.61
2023-03-29T05:18:31.949Z,79.78
2023-03-29T05:20:59.871Z,80.53
2023-03-29T05:23:27.018Z,80.41
2023-03-29T05:25:53.853Z,80.56
2023-03-29T05:28:21.649Z,80.06
2023-03-29T05:30:59.546Z,80.51
2023-03-29T05:33:26.473Z,80.13
2023-03-29T05:36:01.967Z,80.00
2023-03-29T05:38:29.816Z,80.59
2023-03-29T05:40:56.698Z,80.57
2023-03-29T05:43:23.385Z,80.44
2023-03-29T05:45:52.151Z,80.72
2023-03-29T05:48:18.754Z,80.76
2023-03-29T05:50:48.818Z,80.90
2023-03-29T05:53:16.541Z,80.77
2023-03-29T05:55:43.910Z,80.43
2023-03-29T05:58:13.109Z,80.61
2023-03-29T06:00:40.900Z,80.75
2023-03-29T06:03:19.922Z,80.24
2023-03-29T06:05:49.982Z,81.03
2023-03-29T06:08:16.947Z,80.61
2023-03-29T06:10:43.931Z,81.09
2023-03-29T06:13:10.965Z,81.16
2023-03-29T06:15:37.652Z,80.15
2023-03-29T06:18:04.690Z,80.89
2023-03-29T06:20:31.797Z,81.09
2023-03-29T06:22:59.025Z,80.39
2023-03-29T06:25:25.578Z,80.34
2023-03-29T06:27:52.249Z,80.49
2023-03-29T06:30:19.391Z,80.66
2023-03-29T06:32:46.385Z,80.58
2023-03-29T06:35:13.000Z,80.44
2023-03-29T06:37:41.511Z,80.51
2023-03-29T06:40:10.088Z,80.83
2023-03-29T06:42:36.640Z,80.68
2023-03-29T06:45:04.190Z,81.03
2023-03-29T06:47:31.639Z,80.24
2023-03-29T06:49:58.287Z,80.84
2023-03-29T06:52:24.898Z,80.83
2023-03-29T06:54:51.654Z,80.46
2023-03-29T06:57:18.840Z,80.18
2023-03-29T06:59:45.503Z,80.51
2023-03-29T07:02:13.133Z,79.98
2023-03-29T07:04:41.933Z,80.20
2023-03-29T07:07:20.039Z,79.79
2023-03-29T07:09:54.096Z,79.94
2023-03-29T07:12:22.723Z,79.65
2023-03-29T07:14:49.347Z,80.28
2023-03-29T07:17:16.746Z,80.16
2023-03-29T07:19:43.473Z,79.54
2023-03-29T07:22:10.146Z,79.66
2023-03-29T07:24:36.754Z,79.72
2023-03-29T07:27:04.751Z,79.35
2023-03-29T07:29:32.503Z,79.31
2023-03-29T07:31:59.115Z,79.70
2023-03-29T07:34:25.791Z,79.72
2023-03-29T07:36:52.594Z,79.25
2023-03-29T07:39:19.297Z,79.71
2023-03-29T07:41:45.982Z,79.68
2023-03-29T07:44:12.507Z,78.81
2023-03-29T07:46:39.234Z,78.92
2023-03-29T07:49:07.456Z,79.23
2023-03-29T07:51:34.266Z,78.56
2023-03-29T07:54:00.839Z,78.83
2023-03-29T07:56:27.378Z,78.20
2023-03-29T07:58:53.951Z,77.18
2023-03-29T08:01:20.811Z,77.20
2023-03-29T08:03:48.251Z,76.98
2023-03-29T08:06:16.256Z,75.61
2023-03-29T08:08:42.796Z,77.07
2023-03-29T08:11:10.284Z,76.55
2023-03-29T08:13:37.486Z,75.88
2023-03-29T08:16:05.901Z,77.04
2023-03-29T08:18:34.699Z,76.77
2023-03-29T08:21:02.224Z,77.67
2023-03-29T08:23:28.947Z,77.86
2023-03-29T08:25:55.709Z,76.69
2023-03-29T08:28:22.404Z,76.91
2023-03-29T08:30:49.793Z,76.84
2023-03-29T08:33:17.092Z,77.05
2023-03-29T08:35:44.051Z,77.43
2023-03-29T08:38:11.350Z,77.18
2023-03-29T08:40:38.140Z,77.45
2023-03-29T08:46:16.614Z,77.50
2023-03-29T08:48:49.448Z,77.59
2023-03-29T08:51:40.658Z,76.48
2023-03-29T08:54:15.418Z,78.05
2023-03-29T08:56:44.851Z,77.08
2023-03-29T08:59:20.759Z,77.73
2023-03-29T09:01:50.865Z,76.88
2023-03-29T09:04:22.919Z,76.88
2023-03-29T09:06:49.666Z,77.71
2023-03-29T09:09:21.171Z,77.45
2023-03-29T09:23:22.439Z,77.95
2023-03-29T09:31:23.017Z,79.26
2023-03-29T09:33:57.947Z,79.30
2023-03-29T09:39:13.331Z,79.19
2023-03-29T09:41:47.508Z,79.59
2023-03-29T09:44:30.335Z,79.66
2023-03-29T09:47:07.510Z,80.02
2023-03-29T09:49:39.943Z,79.66
2023-03-29T09:52:13.026Z,80.60
2023-03-29T09:54:40.266Z,80.08
2023-03-29T09:57:09.415Z,80.54
2023-03-29T09:59:36.930Z,80.16
2023-03-29T10:02:09.218Z,80.23
2023-03-29T10:04:36.897Z,80.75
2023-03-29T10:07:04.766Z,80.96
2023-03-29T10:09:32.555Z,80.53
2023-03-29T10:12:03.223Z,80.56
2023-03-29T10:17:19.901Z,81.69
2023-03-29T10:19:50.412Z,81.41
2023-03-29T10:22:22.930Z,82.09
2023-03-29T10:24:52.134Z,81.71
2023-03-29T10:27:29.116Z,81.00
2023-03-29T10:29:58.529Z,81.71
2023-03-29T10:32:35.675Z,82.40
2023-03-29T10:37:50.437Z,81.50
2023-03-29T10:40:25.874Z,81.73
2023-03-29T10:42:54.022Z,82.79
2023-03-29T10:45:25.812Z,82.72
2023-03-29T10:47:56.016Z,83.08
2023-03-29T10:50:22.964Z,82.41
2023-03-29T10:52:50.526Z,82.40
2023-03-29T10:55:17.376Z,82.79
2023-03-29T10:57:56.257Z,82.10
2023-03-29T11:00:32.606Z,82.63
2023-03-29T11:27:04.835Z,82.49
2023-03-29T11:29:44.546Z,82.53
2023-03-29T11:42:48.505Z,83.91
2023-03-29T11:45:24.433Z,83.00
2023-03-29T11:47:54.255Z,84.42
2023-03-29T11:50:32.203Z,83.40
2023-03-29T11:53:08.424Z,83.36
2023-03-29T11:55:39.516Z,84.16
2023-03-29T12:00:55.769Z,83.54
2023-03-29T12:04:01.669Z,84.65
2023-03-29T12:11:54.796Z,83.81
2023-03-29T12:14:28.277Z,84.64
2023-03-29T12:17:01.623Z,84.48
2023-03-29T12:19:37.506Z,83.03
2023-03-29T12:22:07.931Z,83.59
2023-03-29T12:24:36.538Z,84.20
2023-03-29T12:29:55.332Z,82.81
2023-03-29T12:40:54.210Z,82.48
2023-03-29T12:43:43.561Z,83.46
2023-03-29T12:48:57.362Z,83.48
2023-03-29T12:51:32.551Z,84.10
2023-03-29T12:54:12.755Z,83.77
2023-03-29T13:04:54.601Z,82.69
2023-03-29T13:10:03.215Z,81.92
2023-03-29T13:12:39.595Z,81.74
2023-03-29T13:15:08.016Z,81.48
2023-03-29T13:23:36.871Z,81.74
2023-03-29T13:39:24.758Z,80.84
2023-03-29T13:41:53.436Z,80.47
2023-03-29T13:47:05.556Z,81.33
2023-03-29T13:49:35.561Z,81.01
2023-03-29T13:52:21.865Z,81.51
2023-03-29T13:54:56.162Z,80.88
2023-03-29T13:57:32.632Z,80.76
2023-03-29T14:00:01.735Z,81.22
2023-03-29T14:05:11.597Z,80.24
2023-03-29T14:07:43.436Z,80.76
2023-03-29T14:10:16.255Z,80.68
2023-03-29T14:12:43.092Z,80.65
2023-03-29T14:15:21.893Z,80.65
2023-03-29T14:17:48.905Z,80.23
2023-03-29T14:20:16.676Z,80.94
2023-03-29T14:22:44.325Z,80.73
2023-03-29T14:25:17.388Z,80.12
2023-03-29T14:27:44.295Z,79.76
2023-03-29T14:30:22.655Z,79.56
2023-03-29T14:32:50.543Z,79.19
2023-03-29T14:35:17.620Z,79.01
2023-03-29T14:37:46.521Z,79.61
2023-03-29T14:40:18.931Z,79.66
2023-03-29T14:42:47.498Z,79.59
2023-03-29T14:45:17.128Z,79.81
2023-03-29T14:47:45.021Z,79.86
2023-03-29T14:50:33.502Z,80.27
2023-03-29T14:53:01.481Z,79.71
2023-03-29T14:55:28.190Z,79.97
2023-03-29T14:57:55.627Z,79.72
2023-03-29T15:00:30.252Z,79.26
2023-03-29T15:05:39.625Z,79.86
2023-03-29T15:08:10.444Z,79.43
2023-03-29T15:10:38.720Z,79.69
2023-03-29T15:13:07.785Z,79.54
2023-03-29T15:15:38.439Z,79.13
2023-03-29T15:18:07.965Z,78.75
2023-03-29T15:20:38.298Z,78.81
2023-03-29T15:25:53.764Z,78.69
2023-03-29T15:28:31.301Z,79.06
2023-03-29T15:31:09.855Z,78.24
2023-03-29T15:33:39.694Z,78.15
2023-03-29T15:36:08.300Z,78.81
2023-03-29T15:38:44.117Z,78.69
2023-03-29T15:41:13.997Z,79.22
2023-03-29T15:43:41.461Z,79.03
2023-03-29T15:46:10.509Z,78.85
2023-03-29T15:48:37.422Z,78.44
2023-03-29T15:51:06.399Z,78.49
2023-03-29T15:53:33.817Z,78.19
2023-03-29T15:56:02.497Z,77.95
2023-03-29T15:58:32.380Z,77.83
2023-03-29T16:01:11.463Z,78.27
2023-03-29T16:03:39.357Z,78.12
2023-03-29T16:06:06.350Z,77.97
2023-03-29T16:08:32.891Z,77.90
2023-03-29T16:10:59.452Z,78.29
2023-03-29T16:13:26.034Z,78.13
2023-03-29T16:15:52.686Z,77.43
2023-03-29T16:18:19.293Z,78.56
2023-03-29T16:20:46.624Z,77.80
2023-03-29T16:23:13.391Z,77.80
2023-03-29T16:25:40.780Z,77.33
2023-03-29T16:28:09.121Z,77.87
2023-03-29T16:30:38.386Z,77.82
2023-03-29T16:33:08.870Z,77.33
2023-03-29T16:35:39.895Z,77.18
2023-03-29T16:38:07.754Z,77.48
2023-03-29T16:40:34.776Z,77.64
2023-03-29T16:43:02.130Z,77.68
2023-03-29T16:45:28.841Z,77.50
2023-03-29T16:47:56.200Z,77.57
2023-03-29T16:50:23.209Z,77.14
2023-03-29T16:52:52.467Z,77.31
2023-03-29T16:55:19.375Z,77.11
2023-03-29T16:57:47.691Z,77.27
2023-03-29T17:00:16.952Z,77.07
2023-03-29T17:02:44.101Z,76.79
2023-03-29T17:05:12.632Z,76.73
2023-03-29T17:07:39.410Z,77.06
2023-03-29T17:10:08.279Z,76.72
2023-03-29T17:12:35.497Z,76.38
2023-03-29T17:15:02.918Z,77.02
2023-03-29T17:17:29.628Z,77.29
2023-03-29T17:19:56.799Z,77.06
2023-03-29T17:22:24.541Z,76.67
2023-03-29T17:24:51.153Z,76.28
2023-03-29T17:27:18.235Z,77.17
2023-03-29T17:29:44.794Z,76.58
2023-03-29T17:32:11.351Z,77.14
2023-03-29T17:34:38.773Z,77.11
2023-03-29T17:37:05.371Z,76.17
2023-03-29T17:39:32.154Z,76.38
2023-03-29T17:41:58.857Z,77.23
2023-03-29T17:44:25.572Z,77.16
2023-03-29T17:46:52.243Z,77.30
2023-03-29T17:49:18.901Z,77.52
2023-03-29T17:51:45.898Z,77.41
2023-03-29T17:54:12.561Z,77.54
2023-03-29T17:56:39.187Z,77.61
2023-03-29T17:59:05.937Z,77.89
2023-03-29T18:01:32.888Z,77.22
2023-03-29T18:03:59.501Z,77.37
2023-03-29T18:06:26.264Z,77.90
2023-03-29T18:08:53.359Z,77.27
2023-03-29T18:11:22.951Z,77.98
2023-03-29T18:13:51.522Z,77.01
2023-03-29T18:16:20.019Z,77.35
2023-03-29T18:18:46.942Z,77.38
2023-03-29T18:21:15.074Z,76.85
2023-03-29T18:23:45.046Z,78.08
2023-03-29T18:26:12.259Z,77.39
2023-03-29T18:28:38.910Z,78.00
2023-03-29T18:31:06.428Z,78.89
2023-03-29T18:33:36.659Z,79.39
2023-03-29T18:36:08.519Z,78.66
2023-03-29T18:38:36.739Z,78.96
2023-03-29T18:41:04.600Z,78.46
2023-03-29T18:43:33.473Z,79.08
2023-03-29T18:46:00.163Z,79.42
2023-03-29T18:48:27.632Z,79.53
2023-03-29T18:50:57.896Z,78.73
2023-03-29T18:53:24.902Z,78.79
2023-03-29T18:55:51.514Z,78.86
2023-03-29T18:58:20.424Z,79.28
2023-03-29T19:00:47.034Z,79.57
2023-03-29T19:03:13.809Z,79.95
2023-03-29T19:05:40.566Z,79.82
2023-03-29T19:08:08.529Z,80.13
2023-03-29T19:10:37.818Z,80.31
2023-03-29T19:13:05.075Z,79.69
2023-03-29T19:15:34.082Z,80.23
2023-03-29T19:18:01.025Z,79.45
2023-03-29T19:20:27.836Z,79.79
2023-03-29T19:22:54.459Z,79.94
2023-03-29T19:25:21.118Z,79.97
2023-03-29T19:27:47.870Z,79.44
2023-03-29T19:30:14.940Z,79.47
2023-03-29T19:32:41.700Z,79.51
2023-03-29T19:35:09.851Z,79.98
2023-03-29T19:37:36.707Z,79.21
2023-03-29T19:40:06.605Z,80.40
2023-03-29T19:42:36.281Z,81.48
2023-03-29T19:45:04.105Z,82.01
2023-03-29T19:47:31.311Z,81.07
2023-03-29T19:49:58.771Z,80.02
2023-03-29T19:52:28.066Z,80.67
2023-03-29T19:54:56.458Z,81.11
2023-03-29T19:57:24.077Z,80.39
2023-03-29T19:59:53.162Z,81.36
2023-03-29T20:02:20.126Z,80.48
2023-03-29T20:04:47.110Z,81.59
2023-03-29T20:07:13.918Z,80.51
2023-03-29T20:09:44.637Z,82.07
2023-03-29T20:12:11.936Z,81.19
2023-03-29T20:14:40.288Z,81.62
2023-03-29T20:17:07.409Z,81.84
2023-03-29T20:19:36.664Z,81.92
2023-03-29T20:22:04.554Z,82.19
2023-03-29T20:24:32.712Z,81.61
2023-03-29T20:26:59.443Z,81.48
2023-03-29T20:29:26.455Z,82.08
2023-03-29T20:31:53.512Z,80.89
2023-03-29T20:34:20.245Z,82.41
2023-03-29T20:36:46.996Z,81.65
2023-03-29T20:39:17.672Z,81.36
2023-03-29T20:41:47.455Z,81.15
2023-03-29T20:44:16.856Z,82.30
2023-03-29T20:46:54.589Z,81.90
2023-03-29T20:49:26.544Z,80.95
2023-03-29T20:51:58.502Z,82.24
2023-03-29T20:54:25.995Z,80.81
2023-03-29T20:56:54.761Z,80.65
2023-03-29T20:59:22.841Z,80.83
2023-03-29T21:01:50.476Z,81.28
2023-03-29T21:04:17.210Z,80.68
2023-03-29T21:06:45.734Z,81.24
2023-03-29T21:09:13.681Z,81.08
2023-03-29T21:11:40.908Z,80.38
2023-03-29T21:14:09.249Z,81.06
2023-03-29T21:16:35.857Z,81.21
2023-03-29T21:19:02.614Z,81.11
2023-03-29T21:21:29.734Z,80.30
2023-03-29T21:23:56.407Z,80.17
2023-03-29T21:26:23.557Z,81.36
2023-03-29T21:28:50.459Z,80.42
2023-03-29T21:31:17.336Z,80.97
2023-03-29T21:33:43.901Z,80.45
2023-03-29T21:36:10.855Z,81.66
2023-03-29T21:38:37.488Z,81.35
2023-03-29T21:41:04.329Z,81.25
2023-03-29T21:43:31.052Z,81.33
2023-03-29T21:45:57.769Z,80.85
2023-03-29T21:48:24.458Z,82.05
2023-03-29T21:50:51.179Z,80.83
2023-03-29T21:53:18.420Z,81.58
2023-03-29T21:55:47.898Z,80.76
2023-03-29T21:58:14.624Z,81.26
2023-03-29T22:00:41.784Z,81.50
2023-03-29T22:03:08.486Z,81.58
2023-03-29T22:05:35.571Z,80.98
2023-03-29T22:08:04.099Z,81.59
2023-03-29T22:10:36.862Z,81.50
2023-03-29T22:13:03.536Z,81.96
2023-03-29T22:15:35.448Z,81.68
2023-03-29T22:18:03.310Z,81.85
2023-03-29T22:20:30.401Z,81.65
2023-03-29T22:22:57.019Z,81.80
2023-03-29T22:25:24.390Z,81.45
2023-03-29T22:27:51.115Z,81.61
2023-03-29T22:30:18.020Z,81.50
2023-03-29T22:32:45.070Z,80.56
2023-03-29T22:35:11.817Z,80.70
2023-03-29T22:37:43.986Z,80.62
2023-03-29T22:40:12.900Z,80.52
2023-03-29T22:42:39.837Z,80.97
2023-03-29T22:45:07.490Z,81.27
2023-03-29T22:47:35.348Z,80.19
2023-03-29T22:50:01.939Z,80.29
2023-03-29T22:52:28.872Z,81.08
2023-03-29T22:54:55.470Z,80.21
2023-03-29T22:57:22.127Z,80.33
2023-03-29T22:59:48.716Z,80.31
2023-03-29T23:02:15.725Z,80.64
2023-03-29T23:04:42.414Z,81.10
2023-03-29T23:07:09.214Z,80.87
2023-03-29T23:09:35.752Z,80.71
2023-03-29T23:12:02.372Z,81.33
2023-03-29T23:14:28.918Z,81.64
2023-03-29T23:16:55.416Z,81.70
2023-03-29T23:19:22.372Z,81.16
2023-03-29T23:21:49.073Z,80.74
2023-03-29T23:24:19.015Z,81.77
2023-03-29T23:26:45.905Z,81.78
2023-03-29T23:29:13.652Z,80.57
2023-03-29T23:31:40.200Z,81.54
2023-03-29T23:34:06.827Z,80.65
2023-03-29T23:36:33.362Z,80.96
2023-03-29T23:39:00.348Z,80.34
2023-03-29T23:41:28.326Z,80.40
2023-03-29T23:43:57.634Z,81.53
2023-03-29T23:46:24.696Z,80.10
2023-03-29T23:48:51.451Z,80.63
2023-03-29T23:51:23.022Z,81.15
2023-03-29T23:53:50.126Z,80.80
2023-03-29T23:56:16.930Z,81.11
2023-03-29T23:58:44.440Z,80.79
